Time;durP1;ratioP1;P1;durP2;ratioP2;P2;SDS_P1;SDS_P2;PMS_P1;PMS_P2;Temp;Humidity;BMP_temperature;BMP_pressure;BME280_temperature;BME280_humidity;BME280_pressure;Samples;Min_cycle;Max_cycle;Signal;HPM_P1;HPM_P2
2023/08/20 00:00:16;;;;;;;3.27;2.63;;;30.00;67.40;;;;;;4858753;29;20453;-83
2023/08/20 00:02:52;;;;;;;2.47;2.37;;;29.90;67.40;;;;;;4861803;29;20443;-83
2023/08/20 00:05:21;;;;;;;3.47;3.23;;;29.90;67.50;;;;;;4861899;29;20449;-83
2023/08/20 00:07:49;;;;;;;2.63;2.53;;;29.90;67.50;;;;;;4860665;29;20928;-83
2023/08/20 00:10:18;;;;;;;3.37;3.17;;;29.90;67.60;;;;;;4862145;29;20439;-83
2023/08/20 00:12:48;;;;;;;2.83;2.73;;;29.90;67.70;;;;;;4861343;29;20986;-83
2023/08/20 00:15:16;;;;;;;3.57;3.37;;;29.90;67.70;;;;;;4861459;29;20520;-84
2023/08/20 00:17:44;;;;;;;3.40;3.20;;;29.90;67.70;;;;;;4861298;29;20485;-83
2023/08/20 00:20:15;;;;;;;3.37;3.17;;;29.90;67.80;;;;;;4861665;29;20452;-83
2023/08/20 00:22:45;;;;;;;3.17;3.00;;;29.80;67.90;;;;;;4863769;29;20830;-83
2023/08/20 00:25:15;;;;;;;3.37;3.17;;;29.80;67.80;;;;;;4845635;29;20467;-84
2023/08/20 00:27:44;;;;;;;2.80;2.70;;;29.80;67.90;;;;;;4848021;29;20466;-83
2023/08/20 00:30:15;;;;;;;2.97;2.80;;;29.80;68.00;;;;;;4859715;29;20996;-84
2023/08/20 00:32:43;;;;;;;3.40;3.20;;;29.80;68.00;;;;;;4861472;29;20846;-83
2023/08/20 00:35:11;;;;;;;2.70;2.60;;;29.80;68.10;;;;;;4860000;29;20550;-83
2023/08/20 00:37:40;;;;;;;2.83;2.70;;;29.80;68.10;;;;;;4846046;29;20471;-83
2023/08/20 00:40:11;;;;;;;3.40;3.20;;;29.70;68.10;;;;;;4860413;29;20482;-84
2023/08/20 00:42:40;;;;;;;3.70;3.50;;;29.70;68.10;;;;;;4861084;29;20439;-83
2023/08/20 00:45:10;;;;;;;2.90;2.80;;;29.70;68.10;;;;;;4859729;29;20452;-83
2023/08/20 00:47:39;;;;;;;3.30;3.10;;;29.70;68.20;;;;;;4861107;29;20495;-83
2023/08/20 00:50:10;;;;;;;3.07;2.90;;;29.70;68.20;;;;;;4856178;29;20483;-83
2023/08/20 00:52:39;;;;;;;3.53;3.33;;;29.70;68.20;;;;;;4845008;29;21237;-83
2023/08/20 00:55:10;;;;;;;3.40;3.20;;;29.70;68.20;;;;;;4857125;29;20464;-83
2023/08/20 00:57:38;;;;;;;3.33;3.13;;;29.70;68.20;;;;;;4852410;29;20557;-84
2023/08/20 01:00:10;;;;;;;3.20;3.00;;;29.70;68.20;;;;;;4861325;29;20450;-83
2023/08/20 01:02:41;;;;;;;3.20;3.00;;;29.70;68.10;;;;;;4858410;29;20458;-83
2023/08/20 01:05:13;;;;;;;3.70;3.40;;;29.70;68.20;;;;;;4873433;29;20517;-84
2023/08/20 01:07:58;;;;;;;3.10;2.90;;;29.70;68.20;;;;;;4859762;29;20454;-83
2023/08/20 01:10:35;;;;;;;3.43;3.23;;;29.70;68.10;;;;;;4859874;29;20542;-82
2023/08/20 01:13:05;;;;;;;3.97;3.67;;;29.70;68.20;;;;;;4859199;29;20841;-83
2023/08/20 01:15:33;;;;;;;3.20;3.00;;;29.70;68.20;;;;;;4859358;29;20900;-83
2023/08/20 01:18:03;;;;;;;2.93;2.73;;;29.70;68.20;;;;;;4859073;29;20486;-83
2023/08/20 01:20:35;;;;;;;3.33;3.13;;;29.70;68.20;;;;;;4868535;29;20479;-84
2023/08/20 01:23:35;;;;;;;2.73;2.63;;;29.70;68.20;;;;;;4858669;29;20455;-84
2023/08/20 01:26:36;;;;;;;3.30;3.10;;;29.70;68.20;;;;;;4859138;29;20468;-83
2023/08/20 01:29:06;;;;;;;3.40;3.20;;;29.70;68.20;;;;;;4849814;29;20512;-83
2023/08/20 01:31:34;;;;;;;3.40;3.20;;;29.70;68.20;;;;;;4859336;29;20467;-83
2023/08/20 01:34:03;;;;;;;3.37;3.17;;;29.70;68.30;;;;;;4854462;29;20526;-84
2023/08/20 01:36:31;;;;;;;3.83;3.53;;;29.70;68.30;;;;;;4859900;29;20476;-84
2023/08/20 01:39:00;;;;;;;3.30;3.10;;;29.70;68.30;;;;;;4859030;29;20595;-83
2023/08/20 01:41:28;;;;;;;3.50;3.30;;;29.70;68.30;;;;;;4860622;29;20479;-83
2023/08/20 01:43:56;;;;;;;3.33;3.13;;;29.70;68.20;;;;;;4858858;29;20880;-83
2023/08/20 01:46:25;;;;;;;3.67;3.47;;;29.70;68.20;;;;;;4860060;29;20494;-82
2023/08/20 01:48:54;;;;;;;3.50;3.30;;;29.70;68.20;;;;;;4874403;29;20832;-84
2023/08/20 01:51:22;;;;;;;4.27;3.97;;;29.70;68.10;;;;;;4869514;29;20474;-84
2023/08/20 01:53:50;;;;;;;3.73;3.50;;;29.70;68.10;;;;;;4857577;29;20492;-83
2023/08/20 01:56:18;;;;;;;3.40;3.20;;;29.70;68.10;;;;;;4859751;29;20440;-83
2023/08/20 01:58:46;;;;;;;4.30;4.00;;;29.70;68.10;;;;;;4855453;29;20568;-83
2023/08/20 02:01:15;;;;;;;3.93;3.63;;;29.70;68.00;;;;;;4859214;29;20477;-83
2023/08/20 02:03:45;;;;;;;3.60;3.40;;;29.70;68.00;;;;;;4858324;29;20486;-83
2023/08/20 02:06:13;;;;;;;3.10;2.90;;;29.70;68.00;;;;;;4858420;29;20467;-83
2023/08/20 02:08:45;;;;;;;4.60;4.20;;;29.70;67.90;;;;;;4857796;29;21003;-83
2023/08/20 02:11:13;;;;;;;4.53;4.13;;;29.70;67.80;;;;;;4858346;29;20819;-83
2023/08/20 02:13:42;;;;;;;3.90;3.70;;;29.70;67.80;;;;;;4859444;29;20547;-84
2023/08/20 02:16:10;;;;;;;3.67;3.47;;;29.80;67.80;;;;;;4874248;29;21183;-83
2023/08/20 02:18:38;;;;;;;4.30;4.00;;;29.80;67.70;;;;;;4866906;29;20470;-83
2023/08/20 02:21:07;;;;;;;4.20;3.90;;;29.80;67.60;;;;;;4853057;29;20481;-83
2023/08/20 02:23:36;;;;;;;3.53;3.23;;;29.80;67.60;;;;;;4857159;29;20464;-83
2023/08/20 02:26:06;;;;;;;3.27;3.07;;;29.80;67.50;;;;;;4850633;29;20481;-83
2023/08/20 02:28:35;;;;;;;4.63;4.23;;;29.80;67.50;;;;;;4850435;29;20499;-83
2023/08/20 02:31:05;;;;;;;4.00;3.80;;;29.80;67.50;;;;;;4859789;29;20911;-83
2023/08/20 02:33:33;;;;;;;3.90;3.70;;;29.80;67.50;;;;;;4859235;29;20533;-83
2023/08/20 02:36:03;;;;;;;4.47;4.17;;;29.90;67.40;;;;;;4858963;29;20520;-83
2023/08/20 02:38:32;;;;;;;4.00;3.77;;;29.80;67.40;;;;;;4858504;29;20451;-83
2023/08/20 02:41:02;;;;;;;4.37;4.07;;;29.80;67.40;;;;;;4859433;29;20801;-83
2023/08/20 02:43:30;;;;;;;3.77;3.57;;;29.80;67.40;;;;;;4859207;29;20996;-83
2023/08/20 02:46:02;;;;;;;3.70;3.50;;;29.80;67.40;;;;;;4859228;29;20438;-83
2023/08/20 02:48:30;;;;;;;3.70;3.50;;;29.80;67.40;;;;;;4862511;29;20464;-84
2023/08/20 02:50:58;;;;;;;3.97;3.77;;;29.80;67.40;;;;;;4851411;29;20454;-83
2023/08/20 02:53:26;;;;;;;3.80;3.60;;;29.80;67.40;;;;;;4844334;29;20971;-83
2023/08/20 02:55:56;;;;;;;4.10;3.80;;;29.80;67.40;;;;;;4851615;29;20494;-84
2023/08/20 02:58:24;;;;;;;4.17;3.90;;;29.80;67.50;;;;;;4862011;29;20458;-84
2023/08/20 03:00:53;;;;;;;3.83;3.63;;;29.80;67.50;;;;;;4863064;29;20502;-83
2023/08/20 03:03:21;;;;;;;3.70;3.50;;;29.80;67.50;;;;;;4860793;29;20474;-83
2023/08/20 03:05:49;;;;;;;4.37;4.07;;;29.80;67.50;;;;;;4862040;29;20463;-83
2023/08/20 03:08:18;;;;;;;4.20;3.90;;;29.80;67.50;;;;;;4860570;29;20825;-83
2023/08/20 03:10:46;;;;;;;4.30;4.10;;;29.80;67.50;;;;;;4862911;29;20583;-83
2023/08/20 03:13:15;;;;;;;4.43;4.13;;;29.80;67.50;;;;;;4861413;29;21066;-84
2023/08/20 03:15:44;;;;;;;4.30;4.00;;;29.80;67.50;;;;;;4862635;29;20452;-83
2023/08/20 03:18:12;;;;;;;4.43;4.13;;;29.80;67.50;;;;;;4862278;29;20577;-83
2023/08/20 03:20:40;;;;;;;4.10;3.90;;;29.80;67.50;;;;;;4843455;29;20538;-84
2023/08/20 03:23:08;;;;;;;4.00;3.80;;;29.80;67.50;;;;;;4842735;29;20482;-82
2023/08/20 03:25:36;;;;;;;4.43;4.03;;;29.70;67.50;;;;;;4846751;29;20499;-83
2023/08/20 03:28:05;;;;;;;3.70;3.50;;;29.70;67.60;;;;;;4848871;29;21085;-83
2023/08/20 03:30:35;;;;;;;4.70;4.40;;;29.70;67.60;;;;;;4850037;29;20463;-84
2023/08/20 03:33:05;;;;;;;4.20;3.90;;;29.70;67.60;;;;;;4843589;29;20836;-83
2023/08/20 03:35:35;;;;;;;4.20;3.90;;;29.70;67.60;;;;;;4845574;29;20490;-83
2023/08/20 03:38:04;;;;;;;6.10;3.97;;;29.70;67.60;;;;;;4859889;29;20467;-83
2023/08/20 03:40:32;;;;;;;4.50;4.20;;;29.70;67.60;;;;;;4876848;29;20501;-84
2023/08/20 03:43:00;;;;;;;4.23;3.93;;;29.70;67.60;;;;;;4861678;29;20451;-84
2023/08/20 03:45:30;;;;;;;4.00;3.73;;;29.70;67.60;;;;;;4861571;29;20467;-84
2023/08/20 03:48:00;;;;;;;4.30;4.00;;;29.70;67.70;;;;;;4861275;29;20876;-83
2023/08/20 03:50:29;;;;;;;4.80;4.50;;;29.70;67.70;;;;;;4859595;29;20564;-83
2023/08/20 03:52:58;;;;;;;4.67;4.40;;;29.70;67.70;;;;;;4848409;29;20492;-83
2023/08/20 03:55:27;;;;;;;4.80;4.50;;;29.70;67.70;;;;;;4858295;29;20486;-83
2023/08/20 03:57:55;;;;;;;4.20;3.90;;;29.70;67.70;;;;;;4849685;29;20817;-83
2023/08/20 04:00:23;;;;;;;4.40;4.20;;;29.70;67.70;;;;;;4862162;29;20446;-83
2023/08/20 04:02:51;;;;;;;4.83;4.53;;;29.60;67.70;;;;;;4860789;29;20473;-83
2023/08/20 04:05:21;;;;;;;4.67;4.37;;;29.60;67.70;;;;;;4860597;29;20468;-83
2023/08/20 04:07:50;;;;;;;4.60;4.30;;;29.60;67.70;;;;;;4861070;29;20497;-84
2023/08/20 04:10:21;;;;;;;4.50;4.30;;;29.60;67.70;;;;;;4860907;29;20476;-83
2023/08/20 04:12:49;;;;;;;4.33;4.03;;;29.60;67.70;;;;;;4860324;29;20952;-83
2023/08/20 04:15:17;;;;;;;5.00;4.60;;;29.60;67.70;;;;;;4862024;29;20848;-83
2023/08/20 04:17:46;;;;;;;4.60;4.30;;;29.60;67.80;;;;;;4861379;29;20446;-83
2023/08/20 04:20:14;;;;;;;4.90;4.50;;;29.60;67.80;;;;;;4854482;29;20970;-83
2023/08/20 04:22:44;;;;;;;4.90;4.60;;;29.60;67.80;;;;;;4845698;29;20478;-83
2023/08/20 04:25:12;;;;;;;5.20;4.90;;;29.60;67.80;;;;;;4842364;29;21287;-83
2023/08/20 04:27:40;;;;;;;4.43;4.13;;;29.60;67.80;;;;;;4859520;29;20458;-84
2023/08/20 04:30:10;;;;;;;4.50;4.20;;;29.60;67.80;;;;;;4860092;29;20493;-83
2023/08/20 04:32:38;;;;;;;4.23;4.03;;;29.60;67.80;;;;;;4859810;29;20477;-83
2023/08/20 04:35:07;;;;;;;4.20;3.90;;;29.60;67.80;;;;;;4860007;29;20491;-83
2023/08/20 04:37:35;;;;;;;4.57;4.27;;;29.60;67.80;;;;;;4858201;29;20475;-84
2023/08/20 04:40:07;;;;;;;4.43;4.23;;;29.60;67.80;;;;;;4859977;29;20491;-83
2023/08/20 04:42:36;;;;;;;4.70;4.33;;;29.60;67.80;;;;;;4860943;29;20518;-83
2023/08/20 04:45:05;;;;;;;4.50;4.20;;;29.60;67.80;;;;;;4860240;29;20452;-83
2023/08/20 04:47:33;;;;;;;4.00;3.80;;;29.60;67.90;;;;;;4860816;29;20461;-84
2023/08/20 04:50:06;;;;;;;4.73;4.43;;;29.60;67.80;;;;;;4849505;29;20971;-84
2023/08/20 04:52:35;;;;;;;4.77;4.37;;;29.60;67.90;;;;;;4841674;29;20452;-83
2023/08/20 04:55:07;;;;;;;5.07;4.77;;;29.60;68.00;;;;;;4862840;29;20498;-83
2023/08/20 04:57:36;;;;;;;4.37;3.93;;;29.60;67.90;;;;;;4858228;29;20471;-83
2023/08/20 05:00:06;;;;;;;4.80;4.50;;;29.50;68.00;;;;;;4859979;29;20791;-83
2023/08/20 05:02:58;;;;;;;4.90;4.60;;;29.50;68.00;;;;;;4853385;29;20464;-83
2023/08/20 05:05:27;;;;;;;4.50;4.30;;;29.50;68.00;;;;;;4858933;29;20887;-83
2023/08/20 05:07:55;;;;;;;4.33;4.07;;;29.50;68.00;;;;;;4858814;29;20466;-83
2023/08/20 05:10:25;;;;;;;5.20;4.90;;;29.50;68.00;;;;;;4858898;29;20502;-84
2023/08/20 05:12:53;;;;;;;4.80;4.50;;;29.50;68.00;;;;;;4860215;29;20470;-84
2023/08/20 05:15:22;;;;;;;4.70;4.40;;;29.50;68.00;;;;;;4860933;29;20481;-84
2023/08/20 05:17:51;;;;;;;5.13;4.50;;;29.50;68.00;;;;;;4856395;29;20842;-83
2023/08/20 05:20:19;;;;;;;5.10;4.80;;;29.50;68.00;;;;;;4859677;29;20475;-83
2023/08/20 05:22:47;;;;;;;4.93;4.53;;;29.50;68.00;;;;;;4851389;29;20466;-83
2023/08/20 05:25:16;;;;;;;4.70;4.40;;;29.50;68.00;;;;;;4859030;29;20803;-82
2023/08/20 05:27:45;;;;;;;5.17;4.80;;;29.50;68.00;;;;;;4858182;29;20576;-83
2023/08/20 05:30:14;;;;;;;5.80;5.40;;;29.50;68.00;;;;;;4860264;29;20488;-84
2023/08/20 05:32:42;;;;;;;5.23;4.93;;;29.50;68.00;;;;;;4860264;29;20485;-83
2023/08/20 05:35:11;;;;;;;5.63;5.17;;;29.50;68.00;;;;;;4858787;29;20548;-83
2023/08/20 05:37:41;;;;;;;5.27;4.97;;;29.50;68.00;;;;;;4857651;29;20456;-83
2023/08/20 05:40:10;;;;;;;5.43;5.03;;;29.50;68.00;;;;;;4860300;29;20538;-83
2023/08/20 05:42:39;;;;;;;4.90;4.60;;;29.50;68.00;;;;;;4874444;29;20460;-82
2023/08/20 05:45:10;;;;;;;5.10;4.80;;;29.50;68.00;;;;;;4859627;29;20462;-83
2023/08/20 05:47:38;;;;;;;5.87;5.37;;;29.50;68.00;;;;;;4850246;29;20471;-83
2023/08/20 05:50:08;;;;;;;5.20;4.90;;;29.50;68.00;;;;;;4855319;29;20481;-83
2023/08/20 05:52:37;;;;;;;5.43;5.03;;;29.50;68.00;;;;;;4857466;29;20478;-83
2023/08/20 05:55:06;;;;;;;5.70;5.30;;;29.50;68.00;;;;;;4840219;29;20495;-83
2023/08/20 05:57:36;;;;;;;4.93;4.63;;;29.50;68.00;;;;;;4840848;29;20468;-84
2023/08/20 06:00:05;;;;;;;4.70;4.50;;;29.50;68.00;;;;;;4858087;29;20446;-85
2023/08/20 06:02:41;;;;;;;5.20;4.83;;;29.50;68.00;;;;;;4851774;29;20458;-83
2023/08/20 06:05:12;;;;;;;5.27;4.97;;;29.50;68.00;;;;;;4858565;29;20532;-83
2023/08/20 06:07:41;;;;;;;5.53;5.13;;;29.50;68.00;;;;;;4858326;29;20505;-84
2023/08/20 06:10:11;;;;;;;4.87;4.57;;;29.50;68.00;;;;;;4858093;29;20543;-83
2023/08/20 06:12:39;;;;;;;5.47;5.07;;;29.50;68.00;;;;;;4858730;29;20459;-84
2023/08/20 06:15:09;;;;;;;5.60;5.30;;;29.60;68.00;;;;;;4854355;29;20893;-83
2023/08/20 06:17:37;;;;;;;4.93;4.63;;;29.50;68.00;;;;;;4858989;29;20475;-83
2023/08/20 06:20:08;;;;;;;5.60;5.20;;;29.60;67.90;;;;;;4859549;29;20460;-83
2023/08/20 06:22:36;;;;;;;5.37;5.07;;;29.60;67.90;;;;;;4857660;29;20462;-83
2023/08/20 06:25:06;;;;;;;4.63;4.33;;;29.60;68.00;;;;;;4858283;29;20447;-83
2023/08/20 06:27:34;;;;;;;5.53;5.13;;;29.60;67.80;;;;;;4859257;29;20470;-84
2023/08/20 06:30:05;;;;;;;4.70;4.40;;;29.60;67.80;;;;;;4873527;29;21254;-83
2023/08/20 06:32:33;;;;;;;5.47;5.17;;;29.60;67.80;;;;;;4873403;29;20464;-83
2023/08/20 06:35:02;;;;;;;5.47;5.10;;;29.60;67.80;;;;;;4859462;29;20485;-84
2023/08/20 06:37:31;;;;;;;5.40;5.10;;;29.60;67.80;;;;;;4872250;29;20744;-83
2023/08/20 06:40:00;;;;;;;5.40;5.10;;;29.60;67.70;;;;;;4841118;29;21049;-84
2023/08/20 06:42:28;;;;;;;5.17;4.87;;;29.60;67.70;;;;;;4840831;29;20921;-84
2023/08/20 06:44:56;;;;;;;5.93;5.50;;;29.60;67.80;;;;;;4846196;29;20554;-83
2023/08/20 06:47:24;;;;;;;5.80;5.37;;;29.60;67.70;;;;;;4859211;29;21008;-84
2023/08/20 06:49:53;;;;;;;5.03;4.73;;;29.60;67.70;;;;;;4872207;29;20532;-83
2023/08/20 06:52:21;;;;;;;5.10;4.80;;;29.60;67.80;;;;;;4858136;29;20490;-84
2023/08/20 06:54:50;;;;;;;5.90;5.50;;;29.60;67.70;;;;;;4858367;29;20521;-83
2023/08/20 06:57:18;;;;;;;5.60;5.20;;;29.60;67.70;;;;;;4852834;29;20887;-83
2023/08/20 06:59:47;;;;;;;4.67;4.37;;;29.60;67.80;;;;;;4857575;29;20989;-83
2023/08/20 07:02:15;;;;;;;6.10;5.70;;;29.60;67.70;;;;;;4843804;29;20968;-83
2023/08/20 07:04:43;;;;;;;5.57;5.17;;;29.60;67.70;;;;;;4854847;29;20504;-83
2023/08/20 07:07:14;;;;;;;4.73;4.43;;;29.60;67.70;;;;;;4840653;29;20454;-83
2023/08/20 07:09:42;;;;;;;5.50;5.00;;;29.60;67.70;;;;;;4856327;29;20447;-83
2023/08/20 07:12:12;;;;;;;5.60;5.20;;;29.60;67.80;;;;;;4859173;29;20526;-84
2023/08/20 07:14:40;;;;;;;5.23;4.87;;;29.60;67.80;;;;;;4853561;29;20471;-84
2023/08/20 07:17:08;;;;;;;5.63;5.33;;;29.70;67.80;;;;;;4859318;29;20487;-83
2023/08/20 07:19:38;;;;;;;5.60;5.20;;;29.70;67.80;;;;;;4858730;29;20450;-83
2023/08/20 07:22:06;;;;;;;5.47;5.17;;;29.70;67.80;;;;;;4859409;29;20445;-83
2023/08/20 07:24:35;;;;;;;5.43;5.13;;;29.70;67.80;;;;;;4857984;29;20467;-83
2023/08/20 07:27:10;;;;;;;6.40;6.00;;;29.70;68.00;;;;;;4857793;29;20455;-83
2023/08/20 07:29:41;;;;;;;5.77;5.37;;;29.70;68.00;;;;;;4857778;29;20840;-83
2023/08/20 07:32:09;;;;;;;5.70;5.30;;;29.70;68.10;;;;;;4859017;29;20466;-83
2023/08/20 07:34:37;;;;;;;5.60;5.20;;;29.70;68.10;;;;;;4861779;29;20452;-84
2023/08/20 07:37:06;;;;;;;5.17;4.83;;;29.70;68.00;;;;;;4861836;29;20459;-83
2023/08/20 07:39:34;;;;;;;5.33;5.03;;;29.70;68.20;;;;;;4861761;29;20462;-83
2023/08/20 07:42:03;;;;;;;5.43;5.03;;;29.70;68.30;;;;;;4856442;29;20474;-84
2023/08/20 07:44:31;;;;;;;4.83;4.50;;;29.70;68.30;;;;;;4862200;29;20927;-84
2023/08/20 07:47:00;;;;;;;5.20;4.90;;;29.70;68.40;;;;;;4862025;29;20871;-83
2023/08/20 07:49:28;;;;;;;5.40;5.10;;;29.70;68.40;;;;;;4860687;29;20515;-83
2023/08/20 07:51:56;;;;;;;4.70;4.40;;;29.70;68.30;;;;;;4862182;29;20516;-83
2023/08/20 07:54:25;;;;;;;5.07;4.77;;;29.70;68.30;;;;;;4860127;29;20455;-84
2023/08/20 07:56:53;;;;;;;5.13;4.80;;;29.70;68.30;;;;;;4862019;29;20483;-83
2023/08/20 07:59:21;;;;;;;5.10;4.80;;;29.70;68.30;;;;;;4861920;29;20456;-84
2023/08/20 08:01:50;;;;;;;5.57;5.27;;;29.70;68.40;;;;;;4861899;29;20456;-83
2023/08/20 08:04:20;;;;;;;5.37;5.07;;;29.60;68.40;;;;;;4862101;29;20495;-83
2023/08/20 08:06:48;;;;;;;6.13;5.73;;;29.60;68.30;;;;;;4861814;29;20544;-83
2023/08/20 08:09:21;;;;;;;5.50;5.13;;;29.60;68.20;;;;;;4860839;29;20452;-82
2023/08/20 08:11:50;;;;;;;5.20;4.80;;;29.60;68.30;;;;;;4856669;29;20471;-83
2023/08/20 08:14:18;;;;;;;5.47;5.13;;;29.60;68.30;;;;;;4861373;29;20887;-83
2023/08/20 08:16:47;;;;;;;5.13;4.83;;;29.60;68.20;;;;;;4861482;29;20539;-83
2023/08/20 08:19:15;;;;;;;5.80;5.40;;;29.60;68.30;;;;;;4861446;29;20462;-84
2023/08/20 08:21:45;;;;;;;4.90;4.60;;;29.60;68.30;;;;;;4861246;29;20459;-83
2023/08/20 08:24:14;;;;;;;5.30;5.00;;;29.50;68.30;;;;;;4860765;29;20452;-83
2023/08/20 08:26:43;;;;;;;4.73;4.43;;;29.50;68.30;;;;;;4862180;29;20451;-83
2023/08/20 08:29:11;;;;;;;4.67;4.37;;;29.50;68.30;;;;;;4867513;29;20493;-83
2023/08/20 08:31:39;;;;;;;5.27;4.97;;;29.50;68.40;;;;;;4861358;29;20549;-83
2023/08/20 08:34:08;;;;;;;5.53;5.13;;;29.50;68.40;;;;;;4861460;29;20444;-83
2023/08/20 08:36:36;;;;;;;5.10;4.80;;;29.50;68.40;;;;;;4860907;29;20489;-83
2023/08/20 08:39:07;;;;;;;4.93;4.63;;;29.50;68.40;;;;;;4859862;29;20446;-85
2023/08/20 08:41:39;;;;;;;5.57;5.17;;;29.50;68.30;;;;;;4857452;29;20481;-84
2023/08/20 08:44:10;;;;;;;4.90;4.60;;;29.50;68.30;;;;;;4854596;29;20498;-83
2023/08/20 08:46:40;;;;;;;5.30;5.00;;;29.50;68.30;;;;;;4861572;29;20918;-84
2023/08/20 08:49:09;;;;;;;5.63;5.23;;;29.50;68.30;;;;;;4861171;29;20467;-83
2023/08/20 08:51:38;;;;;;;4.77;4.47;;;29.50;68.30;;;;;;4860587;29;20435;-85
2023/08/20 08:54:09;;;;;;;5.57;5.17;;;29.50;68.30;;;;;;4859603;29;20446;-84
2023/08/20 08:56:37;;;;;;;5.30;5.00;;;29.50;68.30;;;;;;4861169;29;20543;-84
2023/08/20 08:59:06;;;;;;;5.10;4.80;;;29.60;68.30;;;;;;4860762;29;20458;-83
2023/08/20 09:01:39;;;;;;;5.60;5.20;;;29.60;68.30;;;;;;4855255;29;20492;-83
2023/08/20 09:04:07;;;;;;;5.30;4.90;;;29.50;68.30;;;;;;4860637;29;20462;-83
2023/08/20 09:06:46;;;;;;;5.50;5.13;;;29.60;68.30;;;;;;4860880;29;20546;-84
2023/08/20 09:09:17;;;;;;;5.83;5.43;;;29.60;68.30;;;;;;4855744;29;20470;-83
2023/08/20 09:11:45;;;;;;;5.03;4.73;;;29.60;68.30;;;;;;4842364;29;20440;-83
2023/08/20 09:14:22;;;;;;;5.30;4.90;;;29.60;68.30;;;;;;4841626;29;20517;-83
2023/08/20 09:16:56;;;;;;;5.60;5.20;;;29.50;68.30;;;;;;4861045;29;20979;-83
2023/08/20 09:19:25;;;;;;;4.70;4.40;;;29.50;68.30;;;;;;4867774;29;20801;-83
2023/08/20 09:21:55;;;;;;;4.73;4.43;;;29.50;68.30;;;;;;4860694;29;20438;-83
2023/08/20 09:24:34;;;;;;;4.87;4.57;;;29.50;68.30;;;;;;4860159;29;20942;-83
2023/08/20 09:27:05;;;;;;;5.57;5.27;;;29.60;68.30;;;;;;4860623;29;20815;-83
2023/08/20 09:29:34;;;;;;;5.60;5.20;;;29.50;68.30;;;;;;4859872;29;20495;-83
2023/08/20 09:32:03;;;;;;;5.70;5.37;;;29.50;68.30;;;;;;4860940;29;20483;-84
2023/08/20 09:34:39;;;;;;;5.17;4.87;;;29.50;68.40;;;;;;4859881;29;20967;-83
2023/08/20 09:37:11;;;;;;;4.73;4.43;;;29.60;68.40;;;;;;4860192;29;20534;-83
2023/08/20 09:39:41;;;;;;;4.83;4.53;;;29.50;68.40;;;;;;4859569;29;20924;-83
2023/08/20 09:42:11;;;;;;;4.43;4.10;;;29.50;68.40;;;;;;4854039;29;20470;-83
2023/08/20 09:44:40;;;;;;;4.90;4.60;;;29.50;68.40;;;;;;4859568;29;20471;-83
2023/08/20 09:47:09;;;;;;;4.57;4.27;;;29.50;68.40;;;;;;4853834;29;20968;-83
2023/08/20 09:49:39;;;;;;;4.80;4.50;;;29.50;68.40;;;;;;4860326;29;20510;-83
2023/08/20 09:52:09;;;;;;;5.57;5.17;;;29.50;68.40;;;;;;4859964;29;20447;-83
2023/08/20 09:54:59;;;;;;;4.90;4.60;;;29.50;68.40;;;;;;4852627;29;20849;-84
2023/08/20 09:57:33;;;;;;;4.80;4.50;;;29.50;68.40;;;;;;4856666;29;20506;-83
2023/08/20 10:00:05;;;;;;;4.80;4.50;;;29.50;68.40;;;;;;4858082;29;20462;-83
2023/08/20 10:02:41;;;;;;;4.70;4.40;;;29.50;68.40;;;;;;4859293;29;20431;-83
2023/08/20 10:05:11;;;;;;;5.50;5.10;;;29.60;68.40;;;;;;4858994;29;20458;-83
2023/08/20 10:07:40;;;;;;;4.80;4.50;;;29.60;68.40;;;;;;4858688;29;20510;-83
2023/08/20 10:10:11;;;;;;;4.80;4.50;;;29.60;68.40;;;;;;4854982;29;20470;-83
2023/08/20 10:12:41;;;;;;;4.60;4.30;;;29.60;68.40;;;;;;4858061;29;20802;-83
2023/08/20 10:15:11;;;;;;;4.50;4.20;;;29.60;68.40;;;;;;4859494;29;20442;-83
2023/08/20 10:17:41;;;;;;;4.80;4.50;;;29.60;68.40;;;;;;4859037;29;20499;-83
2023/08/20 10:20:11;;;;;;;4.50;4.20;;;29.60;68.40;;;;;;4859923;29;20541;-83
2023/08/20 10:22:40;;;;;;;4.87;4.57;;;29.60;68.40;;;;;;4857476;29;20512;-83
2023/08/20 10:25:11;;;;;;;4.37;4.17;;;29.60;68.40;;;;;;4859983;29;20439;-83
2023/08/20 10:27:40;;;;;;;5.07;4.77;;;29.60;68.40;;;;;;4859102;29;20502;-83
2023/08/20 10:30:15;;;;;;;4.00;3.80;;;29.60;68.40;;;;;;4859686;29;20494;-83
2023/08/20 10:32:48;;;;;;;4.00;3.80;;;29.60;68.40;;;;;;4859371;29;20449;-83
2023/08/20 10:35:18;;;;;;;4.93;4.53;;;29.60;68.40;;;;;;4873568;29;20471;-83
2023/08/20 10:38:03;;;;;;;4.60;4.30;;;29.60;68.40;;;;;;4858268;29;20934;-84
2023/08/20 10:40:55;;;;;;;4.60;4.40;;;29.60;68.40;;;;;;4849796;29;20477;-83
2023/08/20 10:43:31;;;;;;;4.53;4.23;;;29.60;68.40;;;;;;4859292;29;20484;-83
2023/08/20 10:46:14;;;;;;;4.40;4.10;;;29.60;68.40;;;;;;4852888;29;20876;-84
2023/08/20 10:48:42;;;;;;;4.10;3.90;;;29.60;68.40;;;;;;4855863;29;20462;-82
2023/08/20 10:51:12;;;;;;;4.57;4.37;;;29.60;68.40;;;;;;4858706;29;20471;-84
2023/08/20 10:53:42;;;;;;;4.40;4.00;;;29.60;68.50;;;;;;4858447;29;20452;-83
2023/08/20 10:56:16;;;;;;;5.27;4.93;;;29.60;68.50;;;;;;4859090;29;20474;-83
2023/08/20 10:58:46;;;;;;;5.50;5.17;;;29.60;68.50;;;;;;4858688;29;20474;-83
2023/08/20 11:01:24;;;;;;;4.73;4.43;;;29.50;68.50;;;;;;4859318;29;20443;-82
2023/08/20 11:03:53;;;;;;;4.27;4.07;;;29.60;68.50;;;;;;4858950;29;20448;-83
2023/08/20 11:06:21;;;;;;;4.27;4.07;;;29.50;68.50;;;;;;4859598;29;20444;-83
2023/08/20 11:08:49;;;;;;;4.60;4.30;;;29.50;68.60;;;;;;4860275;29;20479;-83
2023/08/20 11:11:19;;;;;;;3.80;3.60;;;29.50;68.60;;;;;;4860299;29;20492;-84
2023/08/20 11:13:49;;;;;;;4.70;4.40;;;29.50;68.70;;;;;;4860377;29;20464;-84
2023/08/20 11:16:20;;;;;;;4.63;4.33;;;29.50;68.70;;;;;;4862718;29;20444;-83
2023/08/20 11:18:48;;;;;;;4.27;3.97;;;29.50;68.70;;;;;;4862158;29;20531;-84
2023/08/20 11:21:16;;;;;;;3.73;3.53;;;29.50;68.70;;;;;;4863009;29;20440;-83
2023/08/20 11:23:44;;;;;;;4.23;3.97;;;29.50;68.80;;;;;;4861347;29;20547;-83
2023/08/20 11:26:16;;;;;;;4.63;4.33;;;29.50;68.80;;;;;;4862398;29;20793;-83
2023/08/20 11:28:47;;;;;;;4.07;3.87;;;29.60;68.70;;;;;;4862547;29;20543;-83
2023/08/20 11:31:16;;;;;;;4.93;4.63;;;29.60;68.50;;;;;;4862529;29;20504;-83
2023/08/20 11:33:44;;;;;;;3.97;3.77;;;29.70;68.40;;;;;;4861500;29;20471;-83
2023/08/20 11:36:12;;;;;;;4.30;4.10;;;29.80;68.20;;;;;;4857516;29;20468;-83
2023/08/20 11:38:41;;;;;;;3.90;3.70;;;29.90;67.90;;;;;;4861038;29;20885;-84
2023/08/20 11:41:09;;;;;;;4.00;3.80;;;30.10;67.50;;;;;;4856332;29;20869;-83
2023/08/20 11:43:37;;;;;;;3.60;3.37;;;30.30;67.20;;;;;;4862170;29;20576;-83
2023/08/20 11:46:13;;;;;;;4.53;4.23;;;30.50;66.70;;;;;;4861150;29;20448;-83
2023/08/20 11:48:59;;;;;;;4.63;4.33;;;30.70;66.20;;;;;;4861258;29;20451;-83
2023/08/20 11:51:28;;;;;;;4.60;4.30;;;30.80;65.80;;;;;;4862248;29;20439;-84
2023/08/20 11:53:56;;;;;;;4.00;3.80;;;30.90;65.60;;;;;;4860913;29;20484;-83
2023/08/20 11:56:25;;;;;;;4.10;3.90;;;31.00;65.30;;;;;;4861191;29;20564;-83
2023/08/20 11:58:54;;;;;;;4.50;4.20;;;31.10;65.20;;;;;;4861665;29;20476;-83
2023/08/20 12:01:25;;;;;;;4.47;4.17;;;31.20;65.00;;;;;;4852637;29;20501;-83
2023/08/20 12:03:53;;;;;;;3.83;3.63;;;31.20;64.90;;;;;;4843475;29;20998;-84
2023/08/20 12:06:24;;;;;;;3.53;3.33;;;31.30;64.80;;;;;;4854424;29;20474;-83
2023/08/20 12:08:52;;;;;;;4.30;4.10;;;31.30;64.80;;;;;;4860977;29;20917;-83
2023/08/20 12:11:25;;;;;;;4.13;3.93;;;31.30;64.80;;;;;;4856015;29;21031;-84
2023/08/20 12:13:53;;;;;;;4.10;3.80;;;31.30;64.60;;;;;;4861836;29;20513;-83
2023/08/20 12:16:24;;;;;;;4.10;3.90;;;31.30;64.60;;;;;;4861481;29;20996;-83
2023/08/20 12:18:53;;;;;;;3.93;3.73;;;31.40;64.50;;;;;;4860960;29;20508;-83
2023/08/20 12:21:22;;;;;;;3.93;3.70;;;31.40;64.30;;;;;;4860947;29;20505;-83
2023/08/20 12:23:50;;;;;;;3.67;3.37;;;31.50;64.20;;;;;;4860230;29;20460;-84
2023/08/20 12:26:18;;;;;;;4.20;4.00;;;31.50;64.10;;;;;;4861646;29;20440;-84
2023/08/20 12:28:46;;;;;;;3.87;3.67;;;31.60;64.00;;;;;;4861150;29;20552;-83
2023/08/20 12:31:14;;;;;;;4.23;4.03;;;31.60;64.00;;;;;;4861890;29;20444;-83
2023/08/20 12:33:44;;;;;;;4.20;3.90;;;31.60;63.90;;;;;;4861073;29;20504;-83
2023/08/20 12:36:12;;;;;;;4.50;4.20;;;31.60;63.90;;;;;;4860962;29;20459;-83
2023/08/20 12:38:41;;;;;;;3.37;3.17;;;31.60;63.80;;;;;;4858668;29;20566;-83
2023/08/20 12:41:09;;;;;;;3.67;3.47;;;31.60;63.80;;;;;;4842677;29;20464;-84
2023/08/20 12:43:38;;;;;;;3.40;3.20;;;31.60;63.80;;;;;;4855737;29;20452;-84
2023/08/20 12:46:06;;;;;;;4.43;4.13;;;31.60;63.90;;;;;;4860855;29;20509;-83
2023/08/20 12:48:34;;;;;;;3.60;3.40;;;31.50;64.00;;;;;;4860930;29;20544;-83
2023/08/20 12:51:04;;;;;;;3.60;3.40;;;31.50;64.10;;;;;;4861530;29;20508;-83
2023/08/20 12:53:33;;;;;;;3.77;3.57;;;31.40;64.20;;;;;;4860094;29;20452;-83
2023/08/20 12:56:01;;;;;;;3.47;3.27;;;31.40;64.30;;;;;;4861008;29;20487;-83
2023/08/20 12:58:29;;;;;;;3.43;3.23;;;31.40;64.50;;;;;;4860857;29;21092;-83
2023/08/20 13:00:57;;;;;;;3.60;3.40;;;31.30;64.60;;;;;;4861156;29;20516;-83